CheckWX is a tool to help pilots better visualize weather data.  It is not intended as a substitute for an official pre-flight weather briefing.

12:21:09 UTC

KMYZ METAR
Marysville Municipal Airport
Marysville, Kansas, USA
Current

26 mins ago

KMYZ 181155Z AUTO 31006KT 10SM CLR M13/M16 A3037 RMK AO2
Observed
Feb-18 @ 11:55 UTC
Wind
  • 310° at 6 KTS
Visibility
10 SM
Flight Rules
VFR
Cloud Levels
  • Clear skies
Temperature
-13°C / 9°F
Dewpoint
-16°C / 3°F
Humidity
78%
Altimeter
30.37" Hg
Pressure
1028.42 hPa
Previous

46 mins ago

KMYZ 181135Z AUTO 30007KT 10SM CLR M14/M16 A3036 RMK AO2
Observed
Feb-18 @ 11:35 UTC
Wind
  • 300° at 7 KTS
Visibility
10 SM
Flight Rules
VFR
Cloud Levels
  • Clear skies
Temperature
-14°C / 7°F
Dewpoint
-16°C / 3°F
Humidity
85%
Altimeter
30.36" Hg
Pressure
1028.12 hPa
Previous

1 hour ago

KMYZ 181115Z AUTO 33007KT 10SM CLR M14/M16 A3035 RMK AO2
Observed
Feb-18 @ 11:15 UTC
Wind
  • 330° at 7 KTS
Visibility
10 SM
Flight Rules
VFR
Cloud Levels
  • Clear skies
Temperature
-14°C / 7°F
Dewpoint
-16°C / 3°F
Humidity
85%
Altimeter
30.35" Hg
Pressure
1027.82 hPa